Du har inga inställningar för hoppväder.nu

Hoppväder.nu

Senast uppdaterat 11:59

UTC-tid

2021-12-07 kl. 10:59


Sol och måne

Solen går upp 9:13 och går ner 13:49 (beräknade cirkatider)
Nästa fullmåne blir om 12 dagar (2021-12-19)

METAR

ESNU (Umeå)
(9 minuter sedan)
ESNU 071050Z 33003KT 2500 -SN VV028 M09/M09 Q1019=



ESNO (Örnsköldsvik)
(9 minuter sedan)
ESNO 071050Z AUTO 01004KT 340V050 9999 NCD M12/M12 Q1017=



ESNS (Skellefteå)
(9 minuter sedan)
ESNS 071050Z 33003KT 9999 -SN FEW024 OVC035 M10/M12 Q1019=









TAF

ESNU (Umeå)
(149 minuter sedan)
ESNU 070830Z 0709/0718 33003KT 6000 -SN SCT004 OVC015 TEMPO 0709/0718 2000 OVC004=



ESNO (Örnsköldsvik)
(329 minuter sedan)
ESNO 070530Z 0706/0710 02005KT 9999 BKN020 TEMPO 0706/0710 2000 -SN OVC003=



ESNS (Skellefteå)
(149 minuter sedan)
ESNS 070830Z 0709/0718 32004KT 9000 SCT003 BKN025 TEMPO 0709/0718 1200 -SN BKN003=





Kodnycklar till TAF och METAR






LHP

(Umeå är område se44c i Delområde 1)







Spotting

Hur fungerar spotthjälpen och Vindkartan?

Markvind är ca 0 m/s.



Vindkartan

Senast uppdaterad 11:59




All data kommer från LFV.se